Terminal Aerodrome Forecast
Issued by NWS Jackson, KY

Home | Current Version | Previous Version | Text Only | Print | Product List | Glossary On
Versions: 1 2 3 4 5 6 7 8 9 10 11 12 13 14
000
FTUS43 KJKL 012300 RRA
TAFJKL
TAF
KJKL 012339Z 0200/0224 20009KT 5SM -SHRA BR BKN015 OVC025
     FM020600 24007KT 4SM SHRA OVC008
     FM021000 27009KT 4SM SHRASN SCT008 BKN015 OVC025
     FM021200 28010G22KT 5SM -SHSN BR SCT008 OVC015
     FM022100 30006KT P6SM BKN025=

USA.gov is the U.S. government's official web portal to all federal, state and local government web resources and services.